createdAt,value
2022-10-26T00:00:02.860Z,12.15
2022-10-26T00:01:02.816Z,12.18
2022-10-26T00:02:02.146Z,12.22
2022-10-26T00:03:02.152Z,12.23
2022-10-26T00:04:02.055Z,12.23
2022-10-26T00:05:01.852Z,12.25
2022-10-26T00:06:02.136Z,12.25
2022-10-26T00:07:01.958Z,12.29
2022-10-26T00:08:02.586Z,12.30
2022-10-26T00:09:02.220Z,12.33
2022-10-26T00:10:02.108Z,12.38
2022-10-26T00:11:01.994Z,12.39
2022-10-26T00:12:02.558Z,12.42
2022-10-26T00:13:02.668Z,12.44
2022-10-26T00:14:02.624Z,12.48
2022-10-26T00:15:03.188Z,12.51
2022-10-26T00:16:02.689Z,12.52
2022-10-26T00:17:01.811Z,12.53
2022-10-26T00:18:02.134Z,12.56
2022-10-26T00:19:02.399Z,12.59
2022-10-26T00:20:02.217Z,12.61
2022-10-26T00:21:02.331Z,12.65
2022-10-26T00:22:02.290Z,12.69
2022-10-26T00:23:02.489Z,12.70
2022-10-26T00:24:02.285Z,12.73
2022-10-26T00:25:02.011Z,12.76
2022-10-26T00:26:02.595Z,12.75
2022-10-26T00:27:02.713Z,12.77
2022-10-26T00:28:02.810Z,12.78
2022-10-26T00:29:02.943Z,12.74
2022-10-26T00:30:02.619Z,12.76
2022-10-26T00:31:02.988Z,12.76
2022-10-26T00:32:02.976Z,12.77
2022-10-26T00:33:02.911Z,12.80
2022-10-26T00:34:02.714Z,12.82
2022-10-26T00:35:10.668Z,12.85
2022-10-26T00:36:02.928Z,12.87
2022-10-26T00:37:01.786Z,12.89
2022-10-26T00:38:02.287Z,12.91
2022-10-26T00:39:01.643Z,12.90
2022-10-26T00:40:01.714Z,12.91
2022-10-26T00:41:02.202Z,12.94
2022-10-26T00:42:02.440Z,12.93
2022-10-26T00:43:02.508Z,12.96
2022-10-26T00:44:02.417Z,12.96
2022-10-26T00:45:02.939Z,12.97
2022-10-26T00:46:02.479Z,12.96
2022-10-26T00:47:02.001Z,12.94
2022-10-26T00:48:02.006Z,12.91
2022-10-26T00:49:02.180Z,12.88
2022-10-26T00:50:02.015Z,12.87
2022-10-26T00:51:01.814Z,12.88
2022-10-26T00:52:02.620Z,12.92
2022-10-26T00:53:02.457Z,12.94
2022-10-26T00:54:02.513Z,12.98
2022-10-26T00:55:02.156Z,13.02
2022-10-26T00:56:02.534Z,13.04
2022-10-26T00:57:02.274Z,13.07
2022-10-26T00:58:02.774Z,13.10
2022-10-26T00:59:02.607Z,13.12
2022-10-26T01:00:02.182Z,13.15
2022-10-26T01:01:02.190Z,13.15
2022-10-26T01:02:02.737Z,13.17
2022-10-26T01:03:03.127Z,13.18
2022-10-26T01:04:02.925Z,13.17
2022-10-26T01:05:02.914Z,13.17
2022-10-26T01:06:02.646Z,13.16
2022-10-26T01:07:01.970Z,13.17
2022-10-26T01:08:02.389Z,13.16
2022-10-26T01:09:02.257Z,13.15
2022-10-26T01:10:02.525Z,13.09
2022-10-26T01:11:02.502Z,13.07
2022-10-26T01:12:02.341Z,13.10
2022-10-26T01:13:02.241Z,13.12
2022-10-26T01:14:02.449Z,13.13
2022-10-26T01:15:02.344Z,13.10
2022-10-26T01:16:02.101Z,13.10
2022-10-26T01:18:02.337Z,13.13
2022-10-26T01:19:02.781Z,13.15
2022-10-26T01:20:02.567Z,13.17
2022-10-26T01:21:02.838Z,13.15
2022-10-26T01:22:02.718Z,13.12
2022-10-26T01:23:02.420Z,13.13
2022-10-26T01:24:02.932Z,13.15
2022-10-26T01:25:02.712Z,13.11
2022-10-26T01:26:02.636Z,13.11
2022-10-26T01:27:02.868Z,13.05
2022-10-26T01:28:03.437Z,13.06
2022-10-26T01:29:03.513Z,13.04
2022-10-26T01:30:02.913Z,13.02
2022-10-26T01:31:02.979Z,12.97
2022-10-26T01:32:02.461Z,12.95
2022-10-26T01:33:02.197Z,12.98
2022-10-26T01:34:02.784Z,12.95
2022-10-26T01:35:02.401Z,12.98
2022-10-26T01:36:02.242Z,12.98
2022-10-26T01:37:02.777Z,12.96
2022-10-26T01:38:02.441Z,12.96
2022-10-26T01:39:02.370Z,12.93
2022-10-26T01:40:02.853Z,12.95
2022-10-26T01:41:02.588Z,12.99
2022-10-26T01:42:03.061Z,13.02
2022-10-26T01:43:02.812Z,13.00
2022-10-26T01:44:03.341Z,13.00
2022-10-26T01:45:03.076Z,13.02
2022-10-26T01:46:03.414Z,13.04
2022-10-26T01:47:02.632Z,13.04
2022-10-26T01:48:02.957Z,13.07
2022-10-26T01:49:02.636Z,13.06
2022-10-26T01:50:02.504Z,13.09
2022-10-26T01:51:02.866Z,13.11
2022-10-26T01:52:03.412Z,13.12
2022-10-26T01:53:03.498Z,13.14
2022-10-26T01:54:03.650Z,13.12
2022-10-26T01:55:03.123Z,13.09
2022-10-26T01:56:03.493Z,13.10
2022-10-26T01:57:02.710Z,13.13
2022-10-26T01:58:02.552Z,13.10
2022-10-26T01:59:03.023Z,13.10
2022-10-26T02:00:02.912Z,13.07
2022-10-26T02:01:03.312Z,13.07
2022-10-26T02:02:02.618Z,13.06
2022-10-26T02:03:02.740Z,13.04
2022-10-26T02:04:02.868Z,13.05
2022-10-26T02:05:02.474Z,13.04
2022-10-26T02:06:02.386Z,13.02
2022-10-26T02:07:02.909Z,13.09
2022-10-26T02:08:02.924Z,13.14
2022-10-26T02:09:02.815Z,13.15
2022-10-26T02:10:02.719Z,13.15
2022-10-26T02:11:02.581Z,13.16
2022-10-26T02:12:02.630Z,13.22
2022-10-26T02:13:03.207Z,13.27
2022-10-26T02:14:02.887Z,13.32
2022-10-26T02:15:03.015Z,13.37
2022-10-26T02:16:02.889Z,13.38
2022-10-26T02:17:02.469Z,13.39
2022-10-26T02:18:02.217Z,13.44
2022-10-26T02:19:02.405Z,13.49
2022-10-26T02:20:02.247Z,13.54
2022-10-26T02:21:02.565Z,13.57
2022-10-26T02:22:02.307Z,13.61
2022-10-26T02:23:02.221Z,13.65
2022-10-26T02:24:02.834Z,13.68
2022-10-26T02:25:02.512Z,13.69
2022-10-26T02:26:02.394Z,13.72
2022-10-26T02:27:02.505Z,13.74
2022-10-26T02:28:02.368Z,13.75
2022-10-26T02:29:02.963Z,13.75
2022-10-26T02:30:02.627Z,13.69
2022-10-26T02:31:02.526Z,13.66
2022-10-26T02:32:02.573Z,13.63
2022-10-26T02:33:03.131Z,13.62
2022-10-26T02:34:03.068Z,13.55
2022-10-26T02:35:02.968Z,13.53
2022-10-26T02:36:02.813Z,13.52
2022-10-26T02:37:02.162Z,13.46
2022-10-26T02:38:01.834Z,13.47
2022-10-26T02:39:02.243Z,13.50
2022-10-26T02:40:02.117Z,13.45
2022-10-26T02:41:02.103Z,13.48
2022-10-26T02:42:02.198Z,13.46
2022-10-26T02:43:02.362Z,13.47
2022-10-26T02:44:02.264Z,13.45
2022-10-26T02:45:02.016Z,13.47
2022-10-26T02:46:02.405Z,13.52
2022-10-26T02:47:02.490Z,13.53
2022-10-26T02:48:02.376Z,13.56
2022-10-26T02:49:03.114Z,13.56
2022-10-26T02:50:02.478Z,13.60
2022-10-26T02:51:02.446Z,13.61
2022-10-26T02:52:03.088Z,13.60
2022-10-26T02:53:02.512Z,13.66
2022-10-26T02:54:02.882Z,13.68
2022-10-26T02:55:02.728Z,13.67
2022-10-26T02:56:02.557Z,13.67
2022-10-26T02:57:03.122Z,13.66
2022-10-26T02:58:02.705Z,13.66
2022-10-26T02:59:03.010Z,13.68
2022-10-26T03:00:03.056Z,13.68
2022-10-26T03:01:02.407Z,13.64
2022-10-26T03:02:01.995Z,13.67
2022-10-26T03:03:02.547Z,13.68
2022-10-26T03:04:02.158Z,13.70
2022-10-26T03:05:02.585Z,13.76
2022-10-26T03:06:02.181Z,13.79
2022-10-26T03:07:02.295Z,13.77
2022-10-26T03:08:02.493Z,13.82
2022-10-26T03:09:02.380Z,13.80
2022-10-26T03:10:02.091Z,13.78
2022-10-26T03:11:02.404Z,13.84
2022-10-26T03:12:02.430Z,13.83
2022-10-26T03:13:02.317Z,13.80
2022-10-26T03:14:02.296Z,13.82
2022-10-26T03:15:02.332Z,13.80
2022-10-26T03:16:02.281Z,13.77
2022-10-26T03:17:01.793Z,13.76
2022-10-26T03:18:02.058Z,13.80
2022-10-26T03:19:02.151Z,13.81
2022-10-26T03:20:01.909Z,13.85
2022-10-26T03:21:02.392Z,13.87
2022-10-26T03:22:01.978Z,13.90
2022-10-26T03:23:01.967Z,13.93
2022-10-26T03:24:02.291Z,13.96
2022-10-26T03:25:02.655Z,13.97
2022-10-26T03:26:02.204Z,13.97
2022-10-26T03:27:02.741Z,13.86
2022-10-26T03:28:02.075Z,13.86
2022-10-26T03:29:01.969Z,13.90
2022-10-26T03:30:02.212Z,13.92
2022-10-26T03:31:02.235Z,13.92
2022-10-26T03:32:03.248Z,13.86
2022-10-26T03:33:02.891Z,13.90
2022-10-26T03:34:02.682Z,13.82
2022-10-26T03:35:02.688Z,13.78
2022-10-26T03:36:03.130Z,13.82
2022-10-26T03:37:02.055Z,13.73
2022-10-26T03:38:02.423Z,13.70
2022-10-26T03:39:02.361Z,13.72
2022-10-26T03:40:02.031Z,13.75
2022-10-26T03:41:02.329Z,13.71
2022-10-26T03:42:02.967Z,13.69
2022-10-26T03:43:02.583Z,13.68
2022-10-26T03:44:02.600Z,13.67
2022-10-26T03:45:02.572Z,13.70
2022-10-26T03:46:02.939Z,13.70
2022-10-26T03:47:02.796Z,13.72
2022-10-26T03:48:02.928Z,13.71
2022-10-26T03:49:02.680Z,13.75
2022-10-26T03:50:02.943Z,13.75
2022-10-26T03:51:02.942Z,13.77
2022-10-26T03:52:02.824Z,13.79
2022-10-26T03:53:02.582Z,13.80
2022-10-26T03:54:02.486Z,13.83
2022-10-26T03:55:02.385Z,13.87
2022-10-26T03:56:02.895Z,13.90
2022-10-26T03:57:02.608Z,13.86
2022-10-26T03:58:02.606Z,13.84
2022-10-26T03:59:02.400Z,13.88
2022-10-26T04:00:03.033Z,13.90
2022-10-26T04:01:02.729Z,13.96
2022-10-26T04:02:02.708Z,13.98
2022-10-26T04:03:02.645Z,14.03
2022-10-26T04:04:03.088Z,14.08
2022-10-26T04:05:03.052Z,14.09
2022-10-26T04:06:02.763Z,14.12
2022-10-26T04:07:02.471Z,14.16
2022-10-26T04:08:02.976Z,14.15
2022-10-26T04:09:02.785Z,14.13
2022-10-26T04:10:03.017Z,14.15
2022-10-26T04:11:04.647Z,14.17
2022-10-26T04:12:03.265Z,14.20
2022-10-26T04:13:03.070Z,14.25
2022-10-26T04:14:03.324Z,14.26
2022-10-26T04:16:03.360Z,14.32
2022-10-26T04:17:02.980Z,14.38
2022-10-26T04:18:02.751Z,14.39
2022-10-26T04:19:03.243Z,14.40
2022-10-26T04:20:03.018Z,14.43
2022-10-26T04:21:03.395Z,14.44
2022-10-26T04:22:02.306Z,14.47
2022-10-26T04:23:02.090Z,14.51
2022-10-26T04:24:02.210Z,14.52
2022-10-26T04:25:02.171Z,14.50
2022-10-26T04:26:02.323Z,14.55
2022-10-26T04:27:02.900Z,14.57
2022-10-26T04:28:02.826Z,14.53
2022-10-26T04:29:02.983Z,14.58
2022-10-26T04:30:03.092Z,14.57
2022-10-26T04:31:02.954Z,14.51
2022-10-26T04:32:02.563Z,14.55
2022-10-26T04:33:02.803Z,14.56
2022-10-26T04:34:02.440Z,14.57
2022-10-26T04:35:02.355Z,14.59
2022-10-26T04:36:02.645Z,14.63
2022-10-26T04:37:02.344Z,14.64
2022-10-26T04:38:02.064Z,14.61
2022-10-26T04:39:02.191Z,14.64
2022-10-26T04:40:02.561Z,14.67
2022-10-26T04:41:02.146Z,14.69
2022-10-26T04:42:02.267Z,14.70
2022-10-26T04:43:02.069Z,14.72
2022-10-26T04:44:02.009Z,14.72
2022-10-26T04:45:01.878Z,14.77
2022-10-26T04:46:01.979Z,14.76
2022-10-26T04:47:02.576Z,14.76
2022-10-26T04:48:02.233Z,14.80
2022-10-26T04:49:02.197Z,14.82
2022-10-26T04:50:02.532Z,14.81
2022-10-26T04:51:02.188Z,14.79
2022-10-26T04:52:02.676Z,14.79
2022-10-26T04:53:02.518Z,14.76
2022-10-26T04:54:02.749Z,14.79
2022-10-26T04:55:02.368Z,14.78
2022-10-26T04:56:02.546Z,14.82
2022-10-26T04:57:03.231Z,14.84
2022-10-26T04:58:03.095Z,14.87
2022-10-26T04:59:02.957Z,14.87
2022-10-26T05:00:03.142Z,14.89
2022-10-26T05:01:03.337Z,14.92
2022-10-26T05:02:01.716Z,14.95
2022-10-26T05:03:01.590Z,14.96
2022-10-26T05:04:01.542Z,14.99
2022-10-26T05:06:01.786Z,14.96
2022-10-26T05:07:02.197Z,14.98
2022-10-26T05:08:02.103Z,15.00
2022-10-26T05:09:02.536Z,14.97
2022-10-26T05:10:02.385Z,15.00
2022-10-26T05:11:02.227Z,15.02
2022-10-26T05:12:02.752Z,15.05
2022-10-26T05:13:02.429Z,15.06
2022-10-26T05:14:02.861Z,15.07
2022-10-26T05:15:05.024Z,15.09
2022-10-26T05:16:02.497Z,15.09
2022-10-26T05:17:02.330Z,15.11
2022-10-26T05:18:02.267Z,15.12
2022-10-26T05:19:02.064Z,15.11
2022-10-26T05:20:01.869Z,15.13
2022-10-26T05:21:01.866Z,15.12
2022-10-26T05:22:02.393Z,15.12
2022-10-26T05:23:02.139Z,15.13
2022-10-26T05:24:02.433Z,15.13
2022-10-26T05:25:01.933Z,15.16
2022-10-26T05:26:02.091Z,15.15
2022-10-26T05:27:02.669Z,15.15
2022-10-26T05:28:02.469Z,15.13
2022-10-26T05:29:02.287Z,15.12
2022-10-26T05:30:02.846Z,15.12
2022-10-26T05:31:02.409Z,15.10
2022-10-26T05:32:02.992Z,15.10
2022-10-26T05:33:02.565Z,15.12
2022-10-26T05:34:02.463Z,15.12
2022-10-26T05:35:03.041Z,15.11
2022-10-26T05:36:02.501Z,15.13
2022-10-26T05:37:02.029Z,15.06
2022-10-26T05:38:01.865Z,15.01
2022-10-26T05:39:01.883Z,14.98
2022-10-26T05:40:01.809Z,14.99
2022-10-26T05:41:01.507Z,15.00
2022-10-26T05:42:02.663Z,15.00
2022-10-26T05:43:02.554Z,14.99
2022-10-26T05:44:02.422Z,15.02
2022-10-26T05:45:02.156Z,15.05
2022-10-26T05:46:02.403Z,15.06
2022-10-26T05:47:02.600Z,15.07
2022-10-26T05:48:03.391Z,15.08
2022-10-26T05:49:02.492Z,15.09
2022-10-26T05:50:02.412Z,15.11
2022-10-26T05:51:02.974Z,15.11
2022-10-26T05:52:02.303Z,15.12
2022-10-26T05:53:02.162Z,15.13
2022-10-26T05:54:01.743Z,15.15
2022-10-26T05:55:02.249Z,15.16
2022-10-26T05:56:03.973Z,15.16
2022-10-26T05:57:02.910Z,15.17
2022-10-26T05:58:02.929Z,15.18
2022-10-26T05:59:02.431Z,15.20
2022-10-26T06:00:02.670Z,15.16
2022-10-26T06:01:02.627Z,15.14
2022-10-26T06:02:01.628Z,15.15
2022-10-26T06:03:01.498Z,15.15
2022-10-26T06:04:01.611Z,15.14
2022-10-26T06:05:01.898Z,15.15
2022-10-26T06:06:04.014Z,15.17
2022-10-26T06:07:01.740Z,15.18
2022-10-26T06:08:02.359Z,15.20
2022-10-26T06:09:01.863Z,15.21
2022-10-26T06:10:01.807Z,15.22
2022-10-26T06:11:02.322Z,15.21
2022-10-26T06:12:02.196Z,15.19
2022-10-26T06:13:02.191Z,15.20
2022-10-26T06:14:01.942Z,15.21
2022-10-26T06:15:02.264Z,15.23
2022-10-26T06:16:02.123Z,15.25
2022-10-26T06:17:01.985Z,15.24
2022-10-26T06:18:02.606Z,15.23
2022-10-26T06:19:02.340Z,15.25
2022-10-26T06:20:02.306Z,15.25
2022-10-26T06:21:02.241Z,15.26
2022-10-26T06:22:02.147Z,15.26
2022-10-26T06:23:02.353Z,15.28
2022-10-26T06:24:02.353Z,15.27
2022-10-26T06:25:02.311Z,15.27
2022-10-26T06:26:02.176Z,15.26
2022-10-26T06:27:02.408Z,15.26
2022-10-26T06:28:02.832Z,15.26
2022-10-26T06:29:02.673Z,15.26
2022-10-26T06:30:02.635Z,15.25
2022-10-26T06:31:02.613Z,15.25
2022-10-26T06:32:02.491Z,15.23
2022-10-26T06:33:11.529Z,15.25
2022-10-26T06:34:03.084Z,15.22
2022-10-26T06:35:07.016Z,15.22
2022-10-26T06:36:02.829Z,15.17
2022-10-26T06:37:01.602Z,15.12
2022-10-26T06:38:01.836Z,15.10
2022-10-26T06:39:01.612Z,15.10
2022-10-26T06:40:02.202Z,15.10
2022-10-26T06:41:01.790Z,15.12
2022-10-26T06:42:02.457Z,15.13
2022-10-26T06:43:02.846Z,15.16
2022-10-26T06:44:02.797Z,15.19
2022-10-26T06:45:02.583Z,15.22
2022-10-26T06:46:02.625Z,15.24
2022-10-26T06:47:03.189Z,15.27
2022-10-26T06:48:02.948Z,15.29
2022-10-26T06:49:02.479Z,15.29
2022-10-26T06:50:02.979Z,15.31
2022-10-26T06:51:02.952Z,15.32
2022-10-26T06:52:02.269Z,15.34
2022-10-26T06:53:02.750Z,15.35
2022-10-26T06:54:02.714Z,15.35
2022-10-26T06:55:02.761Z,15.35
2022-10-26T06:56:02.536Z,15.35
2022-10-26T06:57:02.514Z,15.35
2022-10-26T06:58:02.448Z,15.36
2022-10-26T06:59:04.857Z,15.37
2022-10-26T07:00:02.595Z,15.38
2022-10-26T07:01:02.717Z,15.40
2022-10-26T07:02:05.655Z,15.38
2022-10-26T07:03:02.833Z,15.38
2022-10-26T07:04:03.106Z,15.38
2022-10-26T07:05:02.471Z,15.37
2022-10-26T07:06:02.895Z,15.38
2022-10-26T07:07:03.173Z,15.38
2022-10-26T07:08:03.204Z,15.37
2022-10-26T07:09:03.275Z,15.36
2022-10-26T07:10:03.270Z,15.35
2022-10-26T07:11:03.221Z,15.36
2022-10-26T07:12:03.484Z,15.35
2022-10-26T07:13:03.004Z,15.35
2022-10-26T07:14:03.647Z,15.34
2022-10-26T07:15:03.473Z,15.36
2022-10-26T07:16:03.549Z,15.36
2022-10-26T07:17:03.669Z,15.35
2022-10-26T07:18:03.586Z,15.34
2022-10-26T07:19:03.262Z,15.31
2022-10-26T07:20:03.291Z,15.27
2022-10-26T07:21:04.185Z,15.28
2022-10-26T07:22:03.078Z,15.28
2022-10-26T07:23:03.025Z,15.29
2022-10-26T07:24:03.034Z,15.28
2022-10-26T07:25:03.473Z,15.27
2022-10-26T07:26:03.358Z,15.28
2022-10-26T07:27:03.509Z,15.30
2022-10-26T07:28:03.004Z,15.30
2022-10-26T07:29:03.598Z,15.31
2022-10-26T07:30:03.336Z,15.29
2022-10-26T07:31:03.376Z,15.29
2022-10-26T07:32:02.812Z,15.26
2022-10-26T07:33:03.210Z,15.23
2022-10-26T07:34:02.964Z,15.24
2022-10-26T07:35:02.927Z,15.25
2022-10-26T07:36:03.141Z,15.28
2022-10-26T07:37:03.264Z,15.28
2022-10-26T07:38:02.753Z,15.30
2022-10-26T07:39:03.268Z,15.28
2022-10-26T07:40:05.758Z,15.28
2022-10-26T07:41:02.855Z,15.26
2022-10-26T07:42:03.356Z,15.28
2022-10-26T07:43:03.275Z,15.26
2022-10-26T07:44:03.313Z,15.28
2022-10-26T07:45:03.809Z,15.29
2022-10-26T07:46:03.272Z,15.32
2022-10-26T07:47:02.634Z,15.34
2022-10-26T07:48:03.221Z,15.29
2022-10-26T07:49:03.219Z,15.31
2022-10-26T07:50:03.112Z,15.33
2022-10-26T07:51:03.374Z,15.32
2022-10-26T07:52:03.175Z,15.34
2022-10-26T07:53:03.072Z,15.27
2022-10-26T07:54:02.879Z,15.31
2022-10-26T07:55:03.028Z,15.26
2022-10-26T07:56:03.076Z,15.19
2022-10-26T07:58:03.652Z,15.13
2022-10-26T07:59:03.739Z,15.16
2022-10-26T08:00:03.724Z,15.15
2022-10-26T08:01:04.071Z,15.16
2022-10-26T08:02:01.849Z,15.18
2022-10-26T08:03:01.657Z,15.20
2022-10-26T08:04:01.695Z,15.19
2022-10-26T08:05:01.971Z,15.24
2022-10-26T08:06:01.839Z,15.27
2022-10-26T08:07:01.779Z,15.29
2022-10-26T08:08:02.058Z,15.28
2022-10-26T08:09:01.998Z,15.27
2022-10-26T08:10:02.009Z,15.27
2022-10-26T08:11:02.047Z,15.31
2022-10-26T08:12:02.386Z,15.36
2022-10-26T08:13:02.277Z,15.38
2022-10-26T08:14:02.342Z,15.36
2022-10-26T08:15:02.391Z,15.36
2022-10-26T08:16:02.647Z,15.38
2022-10-26T08:17:02.492Z,15.37
2022-10-26T08:18:02.257Z,15.39
2022-10-26T08:19:02.668Z,15.39
2022-10-26T08:20:02.364Z,15.38
2022-10-26T08:21:10.663Z,15.35
2022-10-26T08:22:02.963Z,15.34
2022-10-26T08:23:02.753Z,15.29
2022-10-26T08:24:02.501Z,15.29
2022-10-26T08:25:02.576Z,15.26
2022-10-26T08:26:02.720Z,15.21
2022-10-26T08:27:02.489Z,15.20
2022-10-26T08:28:02.487Z,15.20
2022-10-26T08:29:02.099Z,15.22
2022-10-26T08:30:02.167Z,15.22
2022-10-26T08:31:02.229Z,15.20
2022-10-26T08:32:02.864Z,15.21
2022-10-26T08:33:02.495Z,15.20
2022-10-26T08:34:02.776Z,15.21
2022-10-26T08:35:02.686Z,15.22
2022-10-26T08:36:02.891Z,15.26
2022-10-26T08:37:02.876Z,15.28
2022-10-26T08:38:02.602Z,15.32
2022-10-26T08:39:02.666Z,15.34
2022-10-26T08:40:03.548Z,15.38
2022-10-26T08:41:02.561Z,15.42
2022-10-26T08:42:02.662Z,15.41
2022-10-26T08:43:02.280Z,15.45
2022-10-26T08:44:02.240Z,15.49
2022-10-26T08:45:02.079Z,15.53
2022-10-26T08:46:02.267Z,15.48
2022-10-26T08:47:02.944Z,15.49
2022-10-26T08:48:03.150Z,15.50
2022-10-26T08:49:02.832Z,15.55
2022-10-26T08:50:02.485Z,15.59
2022-10-26T08:51:02.531Z,15.60
2022-10-26T08:52:01.939Z,15.62
2022-10-26T08:53:01.585Z,15.66
2022-10-26T08:54:02.067Z,15.70
2022-10-26T08:55:02.251Z,15.75
2022-10-26T08:56:02.284Z,15.79
2022-10-26T08:57:02.394Z,15.85
2022-10-26T08:58:02.340Z,15.89
2022-10-26T08:59:02.855Z,15.90
2022-10-26T09:00:02.478Z,15.85
2022-10-26T09:01:02.641Z,15.89
2022-10-26T09:02:03.240Z,15.89
2022-10-26T09:03:02.568Z,15.91
2022-10-26T09:05:02.593Z,15.98
2022-10-26T09:06:02.554Z,15.99
2022-10-26T09:07:02.949Z,16.04
2022-10-26T09:08:02.932Z,16.08
2022-10-26T09:09:03.269Z,16.13
2022-10-26T09:10:03.132Z,16.12
2022-10-26T09:11:02.736Z,16.18
2022-10-26T09:12:02.438Z,16.25
2022-10-26T09:13:02.438Z,16.30
2022-10-26T09:14:02.909Z,16.32
2022-10-26T09:15:02.765Z,16.26
2022-10-26T09:16:02.426Z,16.25
2022-10-26T09:17:02.857Z,16.30
2022-10-26T09:18:02.742Z,16.34
2022-10-26T09:19:03.111Z,16.40
2022-10-26T09:20:02.976Z,16.44
2022-10-26T09:21:03.031Z,16.49
2022-10-26T09:22:03.684Z,16.55
2022-10-26T09:23:03.638Z,16.61
2022-10-26T09:24:03.245Z,16.68
2022-10-26T09:25:06.783Z,16.75
2022-10-26T09:26:03.045Z,16.80
2022-10-26T09:27:03.209Z,16.87
2022-10-26T09:28:03.191Z,16.90
2022-10-26T09:29:03.558Z,16.92
2022-10-26T09:30:03.588Z,16.92
2022-10-26T09:31:03.606Z,16.99
2022-10-26T09:32:02.788Z,17.04
2022-10-26T09:33:03.143Z,17.04
2022-10-26T09:34:02.787Z,17.08
2022-10-26T09:35:02.824Z,17.11
2022-10-26T09:36:03.429Z,17.15
2022-10-26T09:37:03.064Z,17.17
2022-10-26T09:38:03.417Z,17.22
2022-10-26T09:39:03.415Z,17.24
2022-10-26T09:40:03.245Z,17.26
2022-10-26T09:41:03.197Z,17.25
2022-10-26T09:42:02.725Z,17.23
2022-10-26T09:43:02.686Z,17.29
2022-10-26T09:44:03.286Z,17.27
2022-10-26T09:45:02.655Z,17.18
2022-10-26T09:46:03.155Z,17.23
2022-10-26T09:47:03.142Z,17.21
2022-10-26T09:48:05.264Z,17.22
2022-10-26T09:50:03.180Z,17.23
2022-10-26T09:51:04.752Z,17.24
2022-10-26T09:52:03.241Z,17.28
2022-10-26T09:53:03.298Z,17.26
2022-10-26T09:54:03.633Z,17.32
2022-10-26T09:55:03.723Z,17.38
2022-10-26T09:56:03.592Z,17.42
2022-10-26T09:57:03.216Z,17.42
2022-10-26T09:58:02.873Z,17.49
2022-10-26T09:59:02.602Z,17.56
2022-10-26T10:00:02.900Z,17.61
2022-10-26T10:01:03.189Z,17.65
2022-10-26T10:02:02.430Z,17.67
2022-10-26T10:03:02.821Z,17.72
2022-10-26T10:04:02.588Z,17.75
2022-10-26T10:05:02.844Z,17.81
2022-10-26T10:06:02.545Z,17.89
2022-10-26T10:07:02.616Z,17.95
2022-10-26T10:08:03.081Z,17.98
2022-10-26T10:09:02.909Z,17.99
2022-10-26T10:10:03.023Z,18.05
2022-10-26T10:11:02.849Z,18.08
2022-10-26T10:12:02.054Z,18.13
2022-10-26T10:13:01.930Z,18.18
2022-10-26T10:14:01.951Z,18.24
2022-10-26T10:15:02.062Z,18.29
2022-10-26T10:16:01.996Z,18.33
2022-10-26T10:17:02.678Z,18.40
2022-10-26T10:18:03.405Z,18.45
2022-10-26T10:19:02.760Z,18.52
2022-10-26T10:20:02.925Z,18.58
2022-10-26T10:21:02.740Z,18.63
2022-10-26T10:22:02.745Z,18.68
2022-10-26T10:23:02.613Z,18.74
2022-10-26T10:24:02.556Z,18.79
2022-10-26T10:25:02.510Z,18.87
2022-10-26T10:26:03.142Z,18.93
2022-10-26T10:27:02.393Z,18.97
2022-10-26T10:28:02.423Z,18.97
2022-10-26T10:29:02.246Z,19.00
2022-10-26T10:30:04.308Z,19.06
2022-10-26T10:31:02.287Z,19.10
2022-10-26T10:32:02.800Z,19.18
2022-10-26T10:33:02.763Z,19.23
2022-10-26T10:34:02.560Z,19.29
2022-10-26T10:35:02.987Z,19.35
2022-10-26T10:36:02.525Z,19.40
2022-10-26T10:37:02.542Z,19.45
2022-10-26T10:38:02.183Z,19.50
2022-10-26T10:39:02.538Z,19.52
2022-10-26T10:40:02.623Z,19.54
2022-10-26T10:41:02.130Z,19.57
2022-10-26T10:42:02.845Z,19.60
2022-10-26T10:43:02.525Z,19.62
2022-10-26T10:44:03.047Z,19.67
2022-10-26T10:45:02.632Z,19.71
2022-10-26T10:46:02.703Z,19.77
2022-10-26T10:47:02.328Z,19.80
2022-10-26T10:48:02.315Z,19.81
2022-10-26T10:49:02.001Z,19.83
2022-10-26T10:50:02.458Z,19.86
2022-10-26T10:51:01.934Z,19.91
2022-10-26T10:52:02.735Z,19.94
2022-10-26T10:53:02.822Z,19.99
2022-10-26T10:54:02.635Z,20.03
2022-10-26T10:55:02.988Z,20.10
2022-10-26T10:56:05.350Z,20.14
2022-10-26T10:57:02.845Z,20.18
2022-10-26T10:58:03.078Z,20.22
2022-10-26T10:59:03.052Z,20.26
2022-10-26T11:00:02.804Z,20.30
2022-10-26T11:01:02.845Z,20.36
2022-10-26T11:02:02.712Z,20.42
2022-10-26T11:03:02.554Z,20.49
2022-10-26T11:04:02.215Z,20.54
2022-10-26T11:05:02.306Z,20.55
2022-10-26T11:06:02.397Z,20.59
2022-10-26T11:07:02.278Z,20.64
2022-10-26T11:08:02.332Z,20.66
2022-10-26T11:09:02.409Z,20.67
2022-10-26T11:10:02.333Z,20.67
2022-10-26T11:11:01.982Z,20.70
2022-10-26T11:12:02.778Z,20.72
2022-10-26T11:13:02.742Z,20.75
2022-10-26T11:14:02.685Z,20.79
2022-10-26T11:15:02.775Z,20.83
2022-10-26T11:16:02.660Z,20.88
2022-10-26T11:17:02.499Z,20.93
2022-10-26T11:18:02.422Z,20.97
2022-10-26T11:19:02.333Z,21.01
2022-10-26T11:20:02.433Z,21.06
2022-10-26T11:21:02.541Z,21.11
2022-10-26T11:22:02.982Z,21.16
2022-10-26T11:23:02.774Z,21.20
2022-10-26T11:24:03.021Z,21.23
2022-10-26T11:25:02.837Z,21.27
2022-10-26T11:26:02.870Z,21.30
2022-10-26T11:27:02.376Z,21.34
2022-10-26T11:28:02.203Z,21.39
2022-10-26T11:29:02.440Z,21.47
2022-10-26T11:30:01.946Z,21.54
2022-10-26T11:31:02.196Z,21.62
2022-10-26T11:32:02.908Z,21.71
2022-10-26T11:33:02.734Z,21.78
2022-10-26T11:34:02.774Z,21.86
2022-10-26T11:35:02.786Z,21.92
2022-10-26T11:36:02.686Z,22.00
2022-10-26T11:37:01.760Z,22.07
2022-10-26T11:38:01.980Z,22.15
2022-10-26T11:39:06.173Z,22.21
2022-10-26T11:40:02.334Z,22.26
2022-10-26T11:41:02.397Z,22.34
2022-10-26T11:42:02.412Z,22.42
2022-10-26T11:43:02.610Z,22.50
2022-10-26T11:44:02.672Z,22.58
2022-10-26T11:45:02.792Z,22.66
2022-10-26T11:46:02.642Z,22.74
2022-10-26T11:47:02.638Z,22.82
2022-10-26T11:48:03.262Z,22.90
2022-10-26T11:49:02.984Z,22.97
2022-10-26T11:50:03.128Z,23.04
2022-10-26T11:51:03.176Z,23.12
2022-10-26T11:52:03.302Z,23.20
2022-10-26T11:53:02.380Z,23.28
2022-10-26T11:54:02.647Z,23.37
2022-10-26T11:55:02.724Z,23.43
2022-10-26T11:56:03.015Z,23.49
2022-10-26T11:57:02.841Z,23.55
2022-10-26T11:58:02.689Z,23.59
2022-10-26T12:00:02.037Z,23.68
2022-10-26T12:01:02.085Z,23.72
2022-10-26T12:02:02.101Z,23.74
2022-10-26T12:03:03.028Z,23.77
2022-10-26T12:04:02.498Z,23.79
2022-10-26T12:05:03.150Z,23.82
2022-10-26T12:06:03.156Z,23.80
2022-10-26T12:07:02.839Z,23.83
2022-10-26T12:08:02.891Z,23.88
2022-10-26T12:09:02.975Z,23.92
2022-10-26T12:10:02.767Z,23.95
2022-10-26T12:11:03.130Z,24.00
2022-10-26T12:12:02.860Z,24.05
2022-10-26T12:13:02.651Z,24.08
2022-10-26T12:14:02.707Z,24.12
2022-10-26T12:15:02.313Z,24.17
2022-10-26T12:16:04.284Z,24.22
2022-10-26T12:17:02.490Z,24.28
2022-10-26T12:18:03.124Z,24.29
2022-10-26T12:19:03.352Z,24.29
2022-10-26T12:20:03.034Z,24.32
2022-10-26T12:21:03.248Z,24.36
2022-10-26T12:22:03.167Z,24.42
2022-10-26T12:23:02.536Z,24.48
2022-10-26T12:24:02.681Z,24.55
2022-10-26T12:25:02.941Z,24.62
2022-10-26T12:26:03.011Z,24.68
2022-10-26T12:27:03.077Z,24.75
2022-10-26T12:28:02.373Z,24.78
2022-10-26T12:29:02.414Z,24.79
2022-10-26T12:30:02.499Z,24.80
2022-10-26T12:31:02.542Z,24.80
2022-10-26T12:32:02.622Z,24.78
2022-10-26T12:33:02.885Z,24.74
2022-10-26T12:34:03.372Z,24.72
2022-10-26T12:35:02.930Z,24.63
2022-10-26T12:36:03.066Z,24.53
2022-10-26T12:37:02.937Z,24.49
2022-10-26T12:38:02.708Z,24.44
2022-10-26T12:39:02.752Z,24.35
2022-10-26T12:40:02.608Z,24.32
2022-10-26T12:41:02.680Z,24.27
2022-10-26T12:42:02.354Z,24.24
2022-10-26T12:43:03.030Z,24.20
2022-10-26T12:44:06.014Z,24.17
2022-10-26T12:45:02.582Z,24.12
2022-10-26T12:46:02.627Z,24.14
2022-10-26T12:47:02.667Z,24.11
2022-10-26T12:48:10.687Z,24.05
2022-10-26T12:49:02.906Z,24.02
2022-10-26T12:50:02.870Z,23.97
2022-10-26T12:51:03.401Z,23.91
2022-10-26T12:53:03.415Z,23.80
2022-10-26T12:54:03.178Z,23.78
2022-10-26T12:55:03.258Z,23.77
2022-10-26T12:56:03.023Z,23.73
2022-10-26T12:57:03.102Z,23.70
2022-10-26T12:58:02.941Z,23.71
2022-10-26T12:59:04.763Z,23.71
2022-10-26T13:00:02.571Z,23.69